sensor_id;sensor_type;location;lat;lon;timestamp;P1;durP1;ratioP1;P2;durP2;ratioP2
20928;SDS011;21895;47.072;15.132;2023-05-16T00:01:17;4.80;;;2.80;;
20928;SDS011;21895;47.072;15.132;2023-05-16T00:03:44;4.93;;;2.20;;
20928;SDS011;21895;47.072;15.132;2023-05-16T00:06:11;6.10;;;2.80;;
20928;SDS011;21895;47.072;15.132;2023-05-16T00:08:37;4.90;;;2.50;;
20928;SDS011;21895;47.072;15.132;2023-05-16T00:11:04;3.43;;;2.33;;
20928;SDS011;21895;47.072;15.132;2023-05-16T00:13:30;2.57;;;2.30;;
20928;SDS011;21895;47.072;15.132;2023-05-16T00:15:57;6.67;;;2.50;;
20928;SDS011;21895;47.072;15.132;2023-05-16T00:18:26;2.60;;;2.20;;
20928;SDS011;21895;47.072;15.132;2023-05-16T00:20:53;4.87;;;2.60;;
20928;SDS011;21895;47.072;15.132;2023-05-16T00:23:20;9.43;;;2.20;;
20928;SDS011;21895;47.072;15.132;2023-05-16T00:25:47;5.73;;;2.73;;
20928;SDS011;21895;47.072;15.132;2023-05-16T00:28:13;4.90;;;2.40;;
20928;SDS011;21895;47.072;15.132;2023-05-16T00:30:40;7.10;;;2.50;;
20928;SDS011;21895;47.072;15.132;2023-05-16T00:33:06;3.17;;;2.17;;
20928;SDS011;21895;47.072;15.132;2023-05-16T00:35:33;3.43;;;2.33;;
20928;SDS011;21895;47.072;15.132;2023-05-16T00:38:00;9.33;;;2.53;;
20928;SDS011;21895;47.072;15.132;2023-05-16T00:40:26;2.77;;;2.03;;
20928;SDS011;21895;47.072;15.132;2023-05-16T00:42:53;4.87;;;2.70;;
20928;SDS011;21895;47.072;15.132;2023-05-16T00:45:20;5.63;;;2.57;;
20928;SDS011;21895;47.072;15.132;2023-05-16T00:47:46;3.67;;;2.57;;
20928;SDS011;21895;47.072;15.132;2023-05-16T00:50:13;6.00;;;2.47;;
20928;SDS011;21895;47.072;15.132;2023-05-16T00:52:39;5.60;;;2.60;;
20928;SDS011;21895;47.072;15.132;2023-05-16T00:55:06;2.93;;;2.37;;
20928;SDS011;21895;47.072;15.132;2023-05-16T00:57:36;3.43;;;2.20;;
20928;SDS011;21895;47.072;15.132;2023-05-16T01:00:04;5.50;;;2.43;;
20928;SDS011;21895;47.072;15.132;2023-05-16T01:02:36;5.03;;;2.40;;
20928;SDS011;21895;47.072;15.132;2023-05-16T01:05:04;3.77;;;2.00;;
20928;SDS011;21895;47.072;15.132;2023-05-16T01:07:31;3.30;;;2.17;;
20928;SDS011;21895;47.072;15.132;2023-05-16T01:09:58;3.90;;;2.30;;
20928;SDS011;21895;47.072;15.132;2023-05-16T01:12:28;4.83;;;2.60;;
20928;SDS011;21895;47.072;15.132;2023-05-16T01:15:21;3.17;;;2.47;;
20928;SDS011;21895;47.072;15.132;2023-05-16T01:18:30;3.10;;;2.20;;
20928;SDS011;21895;47.072;15.132;2023-05-16T01:21:15;3.67;;;2.30;;
20928;SDS011;21895;47.072;15.132;2023-05-16T01:26:27;5.77;;;2.57;;
20928;SDS011;21895;47.072;15.132;2023-05-16T01:28:54;4.53;;;2.60;;
20928;SDS011;21895;47.072;15.132;2023-05-16T01:31:21;3.43;;;2.53;;
20928;SDS011;21895;47.072;15.132;2023-05-16T01:33:48;3.13;;;2.30;;
20928;SDS011;21895;47.072;15.132;2023-05-16T01:36:20;6.67;;;2.80;;
20928;SDS011;21895;47.072;15.132;2023-05-16T01:39:14;8.53;;;2.20;;
20928;SDS011;21895;47.072;15.132;2023-05-16T01:42:34;7.87;;;2.43;;
20928;SDS011;21895;47.072;15.132;2023-05-16T01:45:28;3.70;;;2.57;;
20928;SDS011;21895;47.072;15.132;2023-05-16T01:48:07;3.83;;;2.53;;
20928;SDS011;21895;47.072;15.132;2023-05-16T01:50:51;4.00;;;2.30;;
20928;SDS011;21895;47.072;15.132;2023-05-16T01:53:26;11.20;;;2.47;;
20928;SDS011;21895;47.072;15.132;2023-05-16T01:56:01;4.33;;;2.53;;
20928;SDS011;21895;47.072;15.132;2023-05-16T01:58:32;3.37;;;2.37;;
20928;SDS011;21895;47.072;15.132;2023-05-16T02:01:02;5.13;;;2.10;;
20928;SDS011;21895;47.072;15.132;2023-05-16T02:03:30;2.80;;;2.27;;
20928;SDS011;21895;47.072;15.132;2023-05-16T02:05:57;5.23;;;2.77;;
20928;SDS011;21895;47.072;15.132;2023-05-16T02:08:24;3.30;;;2.40;;
20928;SDS011;21895;47.072;15.132;2023-05-16T02:10:52;6.20;;;2.40;;
20928;SDS011;21895;47.072;15.132;2023-05-16T02:13:18;4.03;;;2.20;;
20928;SDS011;21895;47.072;15.132;2023-05-16T02:15:45;3.90;;;2.43;;
20928;SDS011;21895;47.072;15.132;2023-05-16T02:18:11;3.93;;;2.70;;
20928;SDS011;21895;47.072;15.132;2023-05-16T02:20:38;3.50;;;2.50;;
20928;SDS011;21895;47.072;15.132;2023-05-16T02:23:05;3.40;;;2.40;;
20928;SDS011;21895;47.072;15.132;2023-05-16T02:25:31;3.57;;;2.60;;
20928;SDS011;21895;47.072;15.132;2023-05-16T02:27:58;4.10;;;2.37;;
20928;SDS011;21895;47.072;15.132;2023-05-16T02:30:24;3.80;;;1.97;;
20928;SDS011;21895;47.072;15.132;2023-05-16T02:32:51;7.03;;;2.30;;
20928;SDS011;21895;47.072;15.132;2023-05-16T02:35:18;8.37;;;2.40;;
20928;SDS011;21895;47.072;15.132;2023-05-16T02:37:45;5.80;;;2.33;;
20928;SDS011;21895;47.072;15.132;2023-05-16T02:40:12;4.57;;;2.17;;
20928;SDS011;21895;47.072;15.132;2023-05-16T02:42:38;4.90;;;2.00;;
20928;SDS011;21895;47.072;15.132;2023-05-16T02:45:05;3.50;;;2.10;;
20928;SDS011;21895;47.072;15.132;2023-05-16T02:47:32;2.97;;;2.23;;
20928;SDS011;21895;47.072;15.132;2023-05-16T02:49:59;2.80;;;2.10;;
20928;SDS011;21895;47.072;15.132;2023-05-16T02:52:25;2.87;;;2.30;;
20928;SDS011;21895;47.072;15.132;2023-05-16T02:54:52;3.97;;;2.10;;
20928;SDS011;21895;47.072;15.132;2023-05-16T02:57:21;2.80;;;2.13;;
20928;SDS011;21895;47.072;15.132;2023-05-16T02:59:48;5.03;;;2.00;;
20928;SDS011;21895;47.072;15.132;2023-05-16T03:02:14;9.50;;;2.93;;
20928;SDS011;21895;47.072;15.132;2023-05-16T03:04:41;4.50;;;2.73;;
20928;SDS011;21895;47.072;15.132;2023-05-16T03:07:08;2.83;;;2.23;;
20928;SDS011;21895;47.072;15.132;2023-05-16T03:09:34;5.63;;;2.37;;
20928;SDS011;21895;47.072;15.132;2023-05-16T03:12:01;10.67;;;2.73;;
20928;SDS011;21895;47.072;15.132;2023-05-16T03:14:27;7.03;;;2.20;;
20928;SDS011;21895;47.072;15.132;2023-05-16T03:16:54;4.47;;;2.50;;
20928;SDS011;21895;47.072;15.132;2023-05-16T03:19:20;6.50;;;2.50;;
20928;SDS011;21895;47.072;15.132;2023-05-16T03:21:47;4.07;;;2.40;;
20928;SDS011;21895;47.072;15.132;2023-05-16T03:24:13;2.70;;;2.00;;
20928;SDS011;21895;47.072;15.132;2023-05-16T03:26:40;4.47;;;2.60;;
20928;SDS011;21895;47.072;15.132;2023-05-16T03:29:06;5.20;;;2.63;;
20928;SDS011;21895;47.072;15.132;2023-05-16T03:31:33;6.50;;;2.37;;
20928;SDS011;21895;47.072;15.132;2023-05-16T03:34:00;2.93;;;2.23;;
20928;SDS011;21895;47.072;15.132;2023-05-16T03:36:26;7.67;;;2.90;;
20928;SDS011;21895;47.072;15.132;2023-05-16T03:38:53;11.73;;;2.57;;
20928;SDS011;21895;47.072;15.132;2023-05-16T03:41:20;4.93;;;2.83;;
20928;SDS011;21895;47.072;15.132;2023-05-16T03:43:46;3.27;;;2.30;;
20928;SDS011;21895;47.072;15.132;2023-05-16T03:46:13;3.90;;;2.70;;
20928;SDS011;21895;47.072;15.132;2023-05-16T03:48:40;7.50;;;2.40;;
20928;SDS011;21895;47.072;15.132;2023-05-16T03:51:06;4.00;;;2.10;;
20928;SDS011;21895;47.072;15.132;2023-05-16T03:53:33;4.43;;;2.47;;
20928;SDS011;21895;47.072;15.132;2023-05-16T03:55:59;4.13;;;2.23;;
20928;SDS011;21895;47.072;15.132;2023-05-16T03:58:25;9.27;;;2.53;;
20928;SDS011;21895;47.072;15.132;2023-05-16T04:00:52;9.00;;;2.70;;
20928;SDS011;21895;47.072;15.132;2023-05-16T04:03:19;3.20;;;2.33;;
20928;SDS011;21895;47.072;15.132;2023-05-16T04:05:56;3.53;;;2.27;;
20928;SDS011;21895;47.072;15.132;2023-05-16T04:08:22;3.93;;;2.30;;
20928;SDS011;21895;47.072;15.132;2023-05-16T04:10:49;3.90;;;2.80;;
20928;SDS011;21895;47.072;15.132;2023-05-16T04:13:15;8.30;;;2.37;;
20928;SDS011;21895;47.072;15.132;2023-05-16T04:15:42;3.40;;;2.20;;
20928;SDS011;21895;47.072;15.132;2023-05-16T04:18:09;7.67;;;2.77;;
20928;SDS011;21895;47.072;15.132;2023-05-16T04:20:35;9.03;;;4.70;;
20928;SDS011;21895;47.072;15.132;2023-05-16T04:23:02;4.77;;;2.50;;
20928;SDS011;21895;47.072;15.132;2023-05-16T04:25:28;2.50;;;2.30;;
20928;SDS011;21895;47.072;15.132;2023-05-16T04:27:55;5.03;;;2.30;;
20928;SDS011;21895;47.072;15.132;2023-05-16T04:30:22;4.70;;;2.60;;
20928;SDS011;21895;47.072;15.132;2023-05-16T04:32:48;6.87;;;2.50;;
20928;SDS011;21895;47.072;15.132;2023-05-16T04:35:15;4.57;;;2.80;;
20928;SDS011;21895;47.072;15.132;2023-05-16T04:37:42;5.53;;;2.50;;
20928;SDS011;21895;47.072;15.132;2023-05-16T04:40:08;2.67;;;2.30;;
20928;SDS011;21895;47.072;15.132;2023-05-16T04:42:35;2.80;;;2.53;;
20928;SDS011;21895;47.072;15.132;2023-05-16T04:45:02;5.10;;;3.00;;
20928;SDS011;21895;47.072;15.132;2023-05-16T04:47:31;2.87;;;2.10;;
20928;SDS011;21895;47.072;15.132;2023-05-16T04:49:57;5.30;;;2.43;;
20928;SDS011;21895;47.072;15.132;2023-05-16T04:52:24;3.10;;;2.50;;
20928;SDS011;21895;47.072;15.132;2023-05-16T04:54:50;7.93;;;2.63;;
20928;SDS011;21895;47.072;15.132;2023-05-16T04:57:17;4.27;;;2.53;;
20928;SDS011;21895;47.072;15.132;2023-05-16T04:59:43;3.53;;;2.70;;
20928;SDS011;21895;47.072;15.132;2023-05-16T05:02:10;3.73;;;2.57;;
20928;SDS011;21895;47.072;15.132;2023-05-16T05:04:37;3.63;;;2.33;;
20928;SDS011;21895;47.072;15.132;2023-05-16T05:07:03;8.10;;;3.10;;
20928;SDS011;21895;47.072;15.132;2023-05-16T05:09:30;4.50;;;3.27;;
20928;SDS011;21895;47.072;15.132;2023-05-16T05:11:56;4.00;;;3.03;;
20928;SDS011;21895;47.072;15.132;2023-05-16T05:14:23;6.30;;;2.80;;
20928;SDS011;21895;47.072;15.132;2023-05-16T05:16:49;4.43;;;3.20;;
20928;SDS011;21895;47.072;15.132;2023-05-16T05:19:16;7.63;;;2.80;;
20928;SDS011;21895;47.072;15.132;2023-05-16T05:21:42;4.93;;;3.00;;
20928;SDS011;21895;47.072;15.132;2023-05-16T05:24:09;3.57;;;2.70;;
20928;SDS011;21895;47.072;15.132;2023-05-16T05:26:36;7.13;;;2.43;;
20928;SDS011;21895;47.072;15.132;2023-05-16T05:29:02;8.63;;;2.63;;
20928;SDS011;21895;47.072;15.132;2023-05-16T05:31:31;4.83;;;2.87;;
20928;SDS011;21895;47.072;15.132;2023-05-16T05:33:59;7.13;;;2.90;;
20928;SDS011;21895;47.072;15.132;2023-05-16T05:36:25;6.30;;;3.17;;
20928;SDS011;21895;47.072;15.132;2023-05-16T05:38:52;7.57;;;3.13;;
20928;SDS011;21895;47.072;15.132;2023-05-16T05:41:19;5.23;;;2.93;;
20928;SDS011;21895;47.072;15.132;2023-05-16T05:43:46;6.10;;;3.43;;
20928;SDS011;21895;47.072;15.132;2023-05-16T05:46:13;5.03;;;3.40;;
20928;SDS011;21895;47.072;15.132;2023-05-16T05:48:40;6.80;;;3.10;;
20928;SDS011;21895;47.072;15.132;2023-05-16T05:51:06;4.90;;;3.30;;
20928;SDS011;21895;47.072;15.132;2023-05-16T05:53:33;5.97;;;3.00;;
20928;SDS011;21895;47.072;15.132;2023-05-16T05:56:00;8.20;;;2.73;;
20928;SDS011;21895;47.072;15.132;2023-05-16T05:58:26;5.70;;;2.97;;
20928;SDS011;21895;47.072;15.132;2023-05-16T06:00:53;3.77;;;2.80;;
20928;SDS011;21895;47.072;15.132;2023-05-16T06:03:19;10.23;;;3.07;;
20928;SDS011;21895;47.072;15.132;2023-05-16T06:05:46;6.60;;;3.30;;
20928;SDS011;21895;47.072;15.132;2023-05-16T06:08:12;5.03;;;3.83;;
20928;SDS011;21895;47.072;15.132;2023-05-16T06:10:39;5.77;;;4.30;;
20928;SDS011;21895;47.072;15.132;2023-05-16T06:13:06;6.50;;;4.03;;
20928;SDS011;21895;47.072;15.132;2023-05-16T06:15:32;6.57;;;4.40;;
20928;SDS011;21895;47.072;15.132;2023-05-16T06:17:59;5.47;;;3.60;;
20928;SDS011;21895;47.072;15.132;2023-05-16T06:20:25;7.23;;;3.80;;
20928;SDS011;21895;47.072;15.132;2023-05-16T06:22:52;5.37;;;3.50;;
20928;SDS011;21895;47.072;15.132;2023-05-16T06:25:19;7.67;;;3.53;;
20928;SDS011;21895;47.072;15.132;2023-05-16T06:27:45;5.83;;;3.80;;
20928;SDS011;21895;47.072;15.132;2023-05-16T06:30:12;8.03;;;3.67;;
20928;SDS011;21895;47.072;15.132;2023-05-16T06:32:38;10.33;;;3.70;;
20928;SDS011;21895;47.072;15.132;2023-05-16T06:35:06;7.70;;;3.60;;
20928;SDS011;21895;47.072;15.132;2023-05-16T06:37:34;10.27;;;5.00;;
20928;SDS011;21895;47.072;15.132;2023-05-16T06:40:00;6.77;;;4.47;;
20928;SDS011;21895;47.072;15.132;2023-05-16T06:42:27;7.87;;;3.90;;
20928;SDS011;21895;47.072;15.132;2023-05-16T06:44:53;10.40;;;4.50;;
20928;SDS011;21895;47.072;15.132;2023-05-16T06:47:20;6.37;;;3.90;;
20928;SDS011;21895;47.072;15.132;2023-05-16T06:49:46;6.33;;;4.47;;
20928;SDS011;21895;47.072;15.132;2023-05-16T06:52:13;7.10;;;4.10;;
20928;SDS011;21895;47.072;15.132;2023-05-16T06:54:40;11.37;;;4.67;;
20928;SDS011;21895;47.072;15.132;2023-05-16T06:57:06;9.33;;;3.83;;
20928;SDS011;21895;47.072;15.132;2023-05-16T06:59:33;11.07;;;4.40;;
20928;SDS011;21895;47.072;15.132;2023-05-16T07:02:00;6.80;;;4.37;;
20928;SDS011;21895;47.072;15.132;2023-05-16T07:04:27;8.80;;;4.10;;
20928;SDS011;21895;47.072;15.132;2023-05-16T07:06:54;7.37;;;3.67;;
20928;SDS011;21895;47.072;15.132;2023-05-16T07:09:20;7.33;;;4.40;;
20928;SDS011;21895;47.072;15.132;2023-05-16T07:11:47;6.63;;;4.40;;
20928;SDS011;21895;47.072;15.132;2023-05-16T07:14:14;16.33;;;6.70;;
20928;SDS011;21895;47.072;15.132;2023-05-16T07:16:40;11.50;;;6.57;;
20928;SDS011;21895;47.072;15.132;2023-05-16T07:19:07;11.67;;;5.80;;
20928;SDS011;21895;47.072;15.132;2023-05-16T07:21:34;12.30;;;6.30;;
20928;SDS011;21895;47.072;15.132;2023-05-16T07:24:00;9.43;;;5.63;;
20928;SDS011;21895;47.072;15.132;2023-05-16T07:26:27;11.53;;;5.77;;
20928;SDS011;21895;47.072;15.132;2023-05-16T07:28:53;11.17;;;5.93;;
20928;SDS011;21895;47.072;15.132;2023-05-16T07:31:20;11.13;;;5.20;;
20928;SDS011;21895;47.072;15.132;2023-05-16T07:33:46;7.60;;;4.90;;
20928;SDS011;21895;47.072;15.132;2023-05-16T07:36:13;12.37;;;5.57;;
20928;SDS011;21895;47.072;15.132;2023-05-16T07:38:43;9.40;;;4.50;;
20928;SDS011;21895;47.072;15.132;2023-05-16T07:41:10;8.80;;;4.77;;
20928;SDS011;21895;47.072;15.132;2023-05-16T07:43:37;5.80;;;4.37;;
20928;SDS011;21895;47.072;15.132;2023-05-16T07:46:03;8.77;;;4.87;;
20928;SDS011;21895;47.072;15.132;2023-05-16T07:48:30;9.50;;;5.00;;
20928;SDS011;21895;47.072;15.132;2023-05-16T07:50:57;8.00;;;4.60;;
20928;SDS011;21895;47.072;15.132;2023-05-16T07:53:23;7.27;;;4.37;;
20928;SDS011;21895;47.072;15.132;2023-05-16T07:55:50;16.07;;;6.73;;
20928;SDS011;21895;47.072;15.132;2023-05-16T07:58:16;15.80;;;7.00;;
20928;SDS011;21895;47.072;15.132;2023-05-16T08:00:44;9.30;;;5.17;;
20928;SDS011;21895;47.072;15.132;2023-05-16T08:03:10;14.43;;;5.43;;
20928;SDS011;21895;47.072;15.132;2023-05-16T08:05:37;7.43;;;4.83;;
20928;SDS011;21895;47.072;15.132;2023-05-16T08:08:04;13.90;;;6.07;;
20928;SDS011;21895;47.072;15.132;2023-05-16T08:10:31;8.73;;;5.27;;
20928;SDS011;21895;47.072;15.132;2023-05-16T08:12:57;7.03;;;4.77;;
20928;SDS011;21895;47.072;15.132;2023-05-16T08:15:27;9.33;;;5.00;;
20928;SDS011;21895;47.072;15.132;2023-05-16T08:17:58;7.60;;;5.43;;
20928;SDS011;21895;47.072;15.132;2023-05-16T08:20:25;14.57;;;6.63;;
20928;SDS011;21895;47.072;15.132;2023-05-16T08:22:52;6.53;;;4.97;;
20928;SDS011;21895;47.072;15.132;2023-05-16T08:25:20;11.50;;;4.05;;
20928;SDS011;21895;47.072;15.132;2023-05-16T08:27:47;8.50;;;4.43;;
20928;SDS011;21895;47.072;15.132;2023-05-16T08:30:15;11.17;;;5.30;;
20928;SDS011;21895;47.072;15.132;2023-05-16T08:32:42;14.30;;;4.83;;
20928;SDS011;21895;47.072;15.132;2023-05-16T08:35:08;8.23;;;5.13;;
20928;SDS011;21895;47.072;15.132;2023-05-16T08:37:35;9.80;;;5.50;;
20928;SDS011;21895;47.072;15.132;2023-05-16T08:40:02;7.00;;;4.73;;
20928;SDS011;21895;47.072;15.132;2023-05-16T08:42:32;10.77;;;5.67;;
20928;SDS011;21895;47.072;15.132;2023-05-16T08:44:59;13.73;;;6.27;;
20928;SDS011;21895;47.072;15.132;2023-05-16T08:47:26;13.83;;;6.43;;
20928;SDS011;21895;47.072;15.132;2023-05-16T08:49:58;14.00;;;6.50;;
20928;SDS011;21895;47.072;15.132;2023-05-16T08:52:28;11.33;;;6.00;;
20928;SDS011;21895;47.072;15.132;2023-05-16T08:55:01;10.60;;;5.50;;
20928;SDS011;21895;47.072;15.132;2023-05-16T08:57:36;7.87;;;5.47;;
20928;SDS011;21895;47.072;15.132;2023-05-16T09:00:05;12.23;;;5.57;;
20928;SDS011;21895;47.072;15.132;2023-05-16T09:02:39;10.23;;;5.83;;
20928;SDS011;21895;47.072;15.132;2023-05-16T09:05:08;10.83;;;5.57;;
20928;SDS011;21895;47.072;15.132;2023-05-16T09:07:38;14.50;;;5.53;;
20928;SDS011;21895;47.072;15.132;2023-05-16T09:10:06;9.93;;;5.37;;
20928;SDS011;21895;47.072;15.132;2023-05-16T09:12:33;10.23;;;5.77;;
20928;SDS011;21895;47.072;15.132;2023-05-16T09:15:01;8.73;;;5.57;;
20928;SDS011;21895;47.072;15.132;2023-05-16T09:17:33;7.97;;;5.90;;
20928;SDS011;21895;47.072;15.132;2023-05-16T09:20:07;9.27;;;5.00;;
20928;SDS011;21895;47.072;15.132;2023-05-16T09:22:36;7.60;;;4.87;;
20928;SDS011;21895;47.072;15.132;2023-05-16T09:25:04;10.40;;;5.03;;
20928;SDS011;21895;47.072;15.132;2023-05-16T09:27:38;8.43;;;5.57;;
20928;SDS011;21895;47.072;15.132;2023-05-16T09:30:06;9.00;;;5.33;;
20928;SDS011;21895;47.072;15.132;2023-05-16T09:32:34;8.57;;;5.60;;
20928;SDS011;21895;47.072;15.132;2023-05-16T09:35:00;9.43;;;5.37;;
20928;SDS011;21895;47.072;15.132;2023-05-16T09:37:27;10.43;;;5.83;;
20928;SDS011;21895;47.072;15.132;2023-05-16T09:39:55;7.43;;;5.93;;
20928;SDS011;21895;47.072;15.132;2023-05-16T09:42:22;10.03;;;6.23;;
20928;SDS011;21895;47.072;15.132;2023-05-16T09:44:51;8.97;;;5.80;;
20928;SDS011;21895;47.072;15.132;2023-05-16T09:47:21;8.63;;;5.93;;
20928;SDS011;21895;47.072;15.132;2023-05-16T09:49:51;8.25;;;5.30;;
20928;SDS011;21895;47.072;15.132;2023-05-16T09:52:18;8.60;;;4.80;;
20928;SDS011;21895;47.072;15.132;2023-05-16T09:54:46;11.77;;;5.60;;
20928;SDS011;21895;47.072;15.132;2023-05-16T09:57:19;11.90;;;5.30;;
20928;SDS011;21895;47.072;15.132;2023-05-16T09:59:46;11.23;;;5.67;;
20928;SDS011;21895;47.072;15.132;2023-05-16T10:02:12;8.02;;;5.62;;
20928;SDS011;21895;47.072;15.132;2023-05-16T10:04:39;8.90;;;5.80;;
20928;SDS011;21895;47.072;15.132;2023-05-16T10:07:07;8.48;;;6.28;;
20928;SDS011;21895;47.072;15.132;2023-05-16T10:09:34;9.70;;;6.43;;
20928;SDS011;21895;47.072;15.132;2023-05-16T10:12:04;8.47;;;6.27;;
20928;SDS011;21895;47.072;15.132;2023-05-16T10:14:37;8.13;;;5.70;;
20928;SDS011;21895;47.072;15.132;2023-05-16T10:17:07;10.40;;;5.80;;
20928;SDS011;21895;47.072;15.132;2023-05-16T10:19:38;12.53;;;6.30;;
20928;SDS011;21895;47.072;15.132;2023-05-16T10:22:07;9.10;;;6.27;;
20928;SDS011;21895;47.072;15.132;2023-05-16T10:24:42;11.38;;;7.07;;
20928;SDS011;21895;47.072;15.132;2023-05-16T10:28:45;12.43;;;7.57;;
20928;SDS011;21895;47.072;15.132;2023-05-16T10:31:14;10.40;;;6.85;;
20928;SDS011;21895;47.072;15.132;2023-05-16T10:33:41;9.33;;;5.87;;
20928;SDS011;21895;47.072;15.132;2023-05-16T10:36:08;9.83;;;6.40;;
20928;SDS011;21895;47.072;15.132;2023-05-16T10:38:36;11.38;;;6.30;;
20928;SDS011;21895;47.072;15.132;2023-05-16T10:41:04;9.23;;;6.23;;
20928;SDS011;21895;47.072;15.132;2023-05-16T10:43:33;11.90;;;6.73;;
20928;SDS011;21895;47.072;15.132;2023-05-16T10:46:02;17.00;;;8.33;;
20928;SDS011;21895;47.072;15.132;2023-05-16T10:48:34;14.27;;;9.00;;
20928;SDS011;21895;47.072;15.132;2023-05-16T11:01:28;11.76;;;6.10;;
20928;SDS011;21895;47.072;15.132;2023-05-16T11:04:01;7.93;;;5.93;;
20928;SDS011;21895;47.072;15.132;2023-05-16T11:06:43;9.47;;;5.60;;
20928;SDS011;21895;47.072;15.132;2023-05-16T11:09:25;14.73;;;5.83;;
20928;SDS011;21895;47.072;15.132;2023-05-16T11:11:55;20.37;;;5.47;;
20928;SDS011;21895;47.072;15.132;2023-05-16T11:14:37;9.57;;;5.87;;
20928;SDS011;21895;47.072;15.132;2023-05-16T11:20:07;9.90;;;6.20;;
20928;SDS011;21895;47.072;15.132;2023-05-16T11:23:16;10.73;;;7.00;;
20928;SDS011;21895;47.072;15.132;2023-05-16T11:25:57;11.17;;;7.17;;
20928;SDS011;21895;47.072;15.132;2023-05-16T11:28:25;9.73;;;6.53;;
20928;SDS011;21895;47.072;15.132;2023-05-16T11:30:53;10.97;;;7.10;;
20928;SDS011;21895;47.072;15.132;2023-05-16T11:33:22;12.23;;;6.47;;
20928;SDS011;21895;47.072;15.132;2023-05-16T11:36:02;13.73;;;6.23;;
20928;SDS011;21895;47.072;15.132;2023-05-16T11:38:34;10.50;;;5.67;;
20928;SDS011;21895;47.072;15.132;2023-05-16T11:41:02;10.90;;;5.30;;
20928;SDS011;21895;47.072;15.132;2023-05-16T11:43:40;7.93;;;5.43;;
20928;SDS011;21895;47.072;15.132;2023-05-16T11:46:10;8.17;;;5.83;;
20928;SDS011;21895;47.072;15.132;2023-05-16T11:48:38;9.60;;;5.45;;
20928;SDS011;21895;47.072;15.132;2023-05-16T11:51:05;7.20;;;5.03;;
20928;SDS011;21895;47.072;15.132;2023-05-16T11:53:33;9.32;;;4.80;;
20928;SDS011;21895;47.072;15.132;2023-05-16T11:56:00;6.97;;;4.93;;
20928;SDS011;21895;47.072;15.132;2023-05-16T11:58:26;6.40;;;4.63;;
20928;SDS011;21895;47.072;15.132;2023-05-16T12:00:53;7.45;;;5.05;;
20928;SDS011;21895;47.072;15.132;2023-05-16T12:03:20;6.40;;;4.70;;
20928;SDS011;21895;47.072;15.132;2023-05-16T12:05:51;7.70;;;5.25;;
20928;SDS011;21895;47.072;15.132;2023-05-16T12:08:20;7.30;;;5.13;;
20928;SDS011;21895;47.072;15.132;2023-05-16T12:10:50;8.40;;;4.90;;
20928;SDS011;21895;47.072;15.132;2023-05-16T12:13:18;8.05;;;5.80;;
20928;SDS011;21895;47.072;15.132;2023-05-16T12:15:48;8.68;;;5.80;;
20928;SDS011;21895;47.072;15.132;2023-05-16T12:18:17;8.85;;;5.72;;
20928;SDS011;21895;47.072;15.132;2023-05-16T12:20:45;8.18;;;5.53;;
20928;SDS011;21895;47.072;15.132;2023-05-16T12:23:12;10.70;;;6.05;;
20928;SDS011;21895;47.072;15.132;2023-05-16T12:25:44;9.17;;;6.13;;
20928;SDS011;21895;47.072;15.132;2023-05-16T12:28:12;7.37;;;5.40;;
20928;SDS011;21895;47.072;15.132;2023-05-16T12:30:41;11.57;;;6.18;;
20928;SDS011;21895;47.072;15.132;2023-05-16T12:33:10;10.73;;;6.03;;
20928;SDS011;21895;47.072;15.132;2023-05-16T12:35:40;12.27;;;6.05;;
20928;SDS011;21895;47.072;15.132;2023-05-16T12:38:10;8.60;;;6.00;;
20928;SDS011;21895;47.072;15.132;2023-05-16T12:40:39;9.57;;;6.15;;
20928;SDS011;21895;47.072;15.132;2023-05-16T12:43:20;9.90;;;6.87;;
20928;SDS011;21895;47.072;15.132;2023-05-16T12:45:48;19.45;;;7.07;;
20928;SDS011;21895;47.072;15.132;2023-05-16T12:48:19;11.18;;;7.20;;
20928;SDS011;21895;47.072;15.132;2023-05-16T12:50:47;9.57;;;7.20;;
20928;SDS011;21895;47.072;15.132;2023-05-16T12:53:16;14.55;;;7.12;;
20928;SDS011;21895;47.072;15.132;2023-05-16T12:55:43;7.40;;;5.70;;
20928;SDS011;21895;47.072;15.132;2023-05-16T12:58:10;6.75;;;4.75;;
20928;SDS011;21895;47.072;15.132;2023-05-16T13:00:37;8.93;;;4.90;;
20928;SDS011;21895;47.072;15.132;2023-05-16T13:03:04;8.57;;;4.93;;
20928;SDS011;21895;47.072;15.132;2023-05-16T13:05:32;8.57;;;4.32;;
20928;SDS011;21895;47.072;15.132;2023-05-16T13:08:00;5.90;;;4.30;;
20928;SDS011;21895;47.072;15.132;2023-05-16T13:10:27;5.43;;;4.28;;
20928;SDS011;21895;47.072;15.132;2023-05-16T13:12:54;6.37;;;4.50;;
20928;SDS011;21895;47.072;15.132;2023-05-16T13:15:23;6.75;;;4.35;;
20928;SDS011;21895;47.072;15.132;2023-05-16T13:17:50;7.03;;;4.50;;
20928;SDS011;21895;47.072;15.132;2023-05-16T13:20:17;10.13;;;4.60;;
20928;SDS011;21895;47.072;15.132;2023-05-16T13:22:43;5.25;;;3.97;;
20928;SDS011;21895;47.072;15.132;2023-05-16T13:25:10;7.78;;;4.35;;
20928;SDS011;21895;47.072;15.132;2023-05-16T13:27:37;7.10;;;4.47;;
20928;SDS011;21895;47.072;15.132;2023-05-16T13:30:04;6.62;;;4.30;;
20928;SDS011;21895;47.072;15.132;2023-05-16T13:32:31;7.80;;;4.50;;
20928;SDS011;21895;47.072;15.132;2023-05-16T13:34:58;8.83;;;4.33;;
20928;SDS011;21895;47.072;15.132;2023-05-16T13:37:25;6.20;;;4.43;;
20928;SDS011;21895;47.072;15.132;2023-05-16T13:39:51;6.53;;;4.55;;
20928;SDS011;21895;47.072;15.132;2023-05-16T13:42:19;8.90;;;4.57;;
20928;SDS011;21895;47.072;15.132;2023-05-16T13:44:45;8.60;;;4.80;;
20928;SDS011;21895;47.072;15.132;2023-05-16T13:47:12;8.97;;;4.60;;
20928;SDS011;21895;47.072;15.132;2023-05-16T13:49:38;5.18;;;3.92;;
20928;SDS011;21895;47.072;15.132;2023-05-16T13:52:05;5.53;;;3.73;;
20928;SDS011;21895;47.072;15.132;2023-05-16T13:54:32;10.73;;;4.22;;
20928;SDS011;21895;47.072;15.132;2023-05-16T13:56:58;3.65;;;3.10;;
20928;SDS011;21895;47.072;15.132;2023-05-16T13:59:26;4.33;;;3.30;;
20928;SDS011;21895;47.072;15.132;2023-05-16T14:02:21;4.37;;;3.50;;
20928;SDS011;21895;47.072;15.132;2023-05-16T14:04:50;8.57;;;4.80;;
20928;SDS011;21895;47.072;15.132;2023-05-16T14:07:17;10.53;;;5.20;;
20928;SDS011;21895;47.072;15.132;2023-05-16T14:09:44;6.80;;;3.80;;
20928;SDS011;21895;47.072;15.132;2023-05-16T14:12:10;5.63;;;3.80;;
20928;SDS011;21895;47.072;15.132;2023-05-16T14:14:37;8.10;;;4.07;;
20928;SDS011;21895;47.072;15.132;2023-05-16T14:17:04;5.07;;;3.70;;
20928;SDS011;21895;47.072;15.132;2023-05-16T14:19:31;5.50;;;3.33;;
20928;SDS011;21895;47.072;15.132;2023-05-16T14:21:59;4.57;;;3.50;;
20928;SDS011;21895;47.072;15.132;2023-05-16T14:24:25;3.47;;;3.17;;
20928;SDS011;21895;47.072;15.132;2023-05-16T14:26:52;4.60;;;3.43;;
20928;SDS011;21895;47.072;15.132;2023-05-16T14:29:22;8.83;;;3.90;;
20928;SDS011;21895;47.072;15.132;2023-05-16T14:31:49;5.13;;;3.80;;
20928;SDS011;21895;47.072;15.132;2023-05-16T14:34:16;20.30;;;3.93;;
20928;SDS011;21895;47.072;15.132;2023-05-16T14:36:42;4.93;;;3.73;;
20928;SDS011;21895;47.072;15.132;2023-05-16T14:39:09;7.63;;;3.80;;
20928;SDS011;21895;47.072;15.132;2023-05-16T14:41:36;6.03;;;3.80;;
20928;SDS011;21895;47.072;15.132;2023-05-16T14:44:03;8.10;;;3.13;;
20928;SDS011;21895;47.072;15.132;2023-05-16T14:46:30;4.47;;;2.93;;
20928;SDS011;21895;47.072;15.132;2023-05-16T14:48:56;5.27;;;2.77;;
20928;SDS011;21895;47.072;15.132;2023-05-16T14:51:23;4.37;;;3.03;;
20928;SDS011;21895;47.072;15.132;2023-05-16T14:53:49;4.47;;;3.23;;
20928;SDS011;21895;47.072;15.132;2023-05-16T14:56:16;3.63;;;3.17;;